Terminal Aerodrome Forecast
Issued by NWS Wilmington, NC

Home | Current Version | Previous Version | Text Only | Print | Product List | Glossary On
Versions: 1 2 3 4 5 6 7 8 9 10 11 12 13 14 15 16 17 18 19
657
FTUS42 KILM 062320
TAFFLO
TAF
KFLO 062320Z 0700/0724 05008KT P6SM VCSH SCT035 BKN070
     FM070300 03011G17KT P6SM -RA SCT025 OVC050
     FM071000 02014G21KT 4SM -RASN BR SCT015 OVC025
      TEMPO 0713/0717 01016G25KT 1SM RASN BKN008
     FM071700 02014G20KT 6SM -RA BR OVC015=

USA.gov is the U.S. government's official web portal to all federal, state and local government web resources and services.